Time;durP1;ratioP1;P1;durP2;ratioP2;P2;SDS_P1;SDS_P2;PMS_P1;PMS_P2;Temp;Humidity;BMP_temperature;BMP_pressure;BME280_temperature;BME280_humidity;BME280_pressure;Samples;Min_cycle;Max_cycle;Signal;HPM_P1;HPM_P2
2023/10/19 00:00:36;;;;;;;23.95;13.10;;;;;;;;;;5070078;28;20122;-76
2023/10/19 00:03:03;;;;;;;20.58;11.32;;;;;;;;;;5071220;28;20044;-76
2023/10/19 00:05:30;;;;;;;20.23;11.70;;;;;;;;;;5083462;28;20040;-75
2023/10/19 00:07:57;;;;;;;21.50;12.20;;;;;;;;;;5090465;28;20074;-76
2023/10/19 00:10:26;;;;;;;20.30;11.57;;;;;;;;;;5072702;28;20079;-75
2023/10/19 00:13:05;;;;;;;27.92;14.23;;;;;;;;;;5090789;28;20059;-75
2023/10/19 00:15:34;;;;;;;21.40;11.90;;;;;;;;;;5088486;28;20060;-75
2023/10/19 00:18:19;;;;;;;17.58;10.23;;;;;;;;;;5073847;28;20493;-76
2023/10/19 00:23:18;;;;;;;24.65;11.68;;;;;;;;;;5071059;28;20060;-78
2023/10/19 00:25:50;;;;;;;28.17;14.73;;;;;;;;;;5064258;28;20131;-75
2023/10/19 00:28:22;;;;;;;28.38;14.65;;;;;;;;;;5053848;28;20041;-79
2023/10/19 00:30:49;;;;;;;31.75;16.10;;;;;;;;;;5070536;28;20040;-75
2023/10/19 00:33:17;;;;;;;23.13;13.70;;;;;;;;;;5070504;28;20048;-75
2023/10/19 00:41:19;;;;;;;;;;;;;;;;;;4992725;28;20380;-78
2023/10/19 00:43:46;;;;;;;27.42;14.05;;;;;;;;;;5025744;28;19990;-79
2023/10/19 00:48:49;;;;;;;27.60;14.57;;;;;;;;;;5093513;28;20051;-79
2023/10/19 00:51:26;;;;;;;25.60;13.85;;;;;;;;;;5077198;28;20078;-79
2023/10/19 00:53:54;;;;;;;27.38;15.50;;;;;;;;;;5072531;28;20181;-79
2023/10/19 00:56:23;;;;;;;29.05;15.30;;;;;;;;;;5079623;28;20052;-81
2023/10/19 00:58:53;;;;;;;25.73;14.63;;;;;;;;;;5117145;27;20044;-79
2023/10/19 01:01:28;;;;;;;23.73;12.77;;;;;;;;;;5078842;28;20049;-81
2023/10/19 01:03:56;;;;;;;30.80;14.50;;;;;;;;;;5106031;28;20044;-79
2023/10/19 01:06:25;;;;;;;27.70;15.00;;;;;;;;;;5076091;28;20072;-79
2023/10/19 01:08:52;;;;;;;30.00;15.90;;;;;;;;;;5093062;28;20113;-79
2023/10/19 01:11:21;;;;;;;32.92;16.92;;;;;;;;;;5090240;28;20461;-80
2023/10/19 01:13:51;;;;;;;42.95;18.73;;;;;;;;;;5059351;28;20149;-79
2023/10/19 01:16:20;;;;;;;28.45;15.93;;;;;;;;;;5116512;27;20052;-79
2023/10/19 01:18:53;;;;;;;25.65;13.93;;;;;;;;;;5062700;28;20048;-79
2023/10/19 01:21:37;;;;;;;27.13;15.45;;;;;;;;;;5075842;28;20047;-78
2023/10/19 01:24:12;;;;;;;22.20;13.40;;;;;;;;;;5060844;28;20136;-79
2023/10/19 01:26:38;;;;;;;31.58;14.68;;;;;;;;;;5072329;28;20133;-79
2023/10/19 01:29:14;;;;;;;28.73;16.02;;;;;;;;;;5093222;28;20508;-79
2023/10/19 01:31:55;;;;;;;33.88;15.38;;;;;;;;;;5092577;28;20105;-79
2023/10/19 01:34:21;;;;;;;27.70;15.45;;;;;;;;;;5112226;27;20505;-79
2023/10/19 01:36:51;;;;;;;;;;;;;;;;;;5092033;28;20123;-79
2023/10/19 01:39:18;;;;;;;27.23;15.70;;;;;;;;;;5092541;28;20365;-79
2023/10/19 01:41:45;;;;;;;31.10;15.15;;;;;;;;;;5072154;28;20062;-79
2023/10/19 01:44:15;;;;;;;26.48;14.68;;;;;;;;;;5078952;28;20408;-78
2023/10/19 01:46:43;;;;;;;30.60;15.52;;;;;;;;;;5092293;28;20051;-79
2023/10/19 01:49:10;;;;;;;23.98;14.73;;;;;;;;;;5075750;28;20066;-78
2023/10/19 01:51:39;;;;;;;20.15;13.13;;;;;;;;;;5075021;28;20048;-78
2023/10/19 01:54:07;;;;;;;24.60;14.10;;;;;;;;;;5091269;28;20050;-79
2023/10/19 01:56:37;;;;;;;24.27;14.23;;;;;;;;;;5091982;28;20066;-78
2023/10/19 01:59:04;;;;;;;27.23;15.18;;;;;;;;;;5092536;28;20460;-78
2023/10/19 02:01:32;;;;;;;30.27;15.68;;;;;;;;;;5075005;28;20056;-78
2023/10/19 02:04:03;;;;;;;22.25;13.25;;;;;;;;;;5057441;28;20040;-78
2023/10/19 02:09:00;;;;;;;22.67;13.30;;;;;;;;;;5089012;28;20041;-79
2023/10/19 02:11:26;;;;;;;31.08;15.05;;;;;;;;;;5105956;28;20048;-79
2023/10/19 02:13:54;;;;;;;34.03;16.88;;;;;;;;;;5109263;28;20036;-79
2023/10/19 02:16:23;;;;;;;38.38;16.58;;;;;;;;;;5109977;28;20135;-79
2023/10/19 02:18:50;;;;;;;26.33;14.88;;;;;;;;;;5091938;28;20048;-78
2023/10/19 02:21:22;;;;;;;33.45;16.02;;;;;;;;;;5092342;28;20442;-79
2023/10/19 02:23:51;;;;;;;29.05;14.98;;;;;;;;;;5072818;28;20485;-79
2023/10/19 02:26:22;;;;;;;33.28;16.02;;;;;;;;;;5088844;28;20044;-79
2023/10/19 02:28:52;;;;;;;45.58;18.88;;;;;;;;;;5071454;28;20057;-78
2023/10/19 02:31:20;;;;;;;28.33;15.85;;;;;;;;;;5039294;28;20448;-79
2023/10/19 02:33:50;;;;;;;23.65;13.70;;;;;;;;;;5086007;28;20442;-79
2023/10/19 02:36:16;;;;;;;30.00;15.40;;;;;;;;;;5075703;28;20441;-79
2023/10/19 02:38:48;;;;;;;21.85;12.70;;;;;;;;;;5073928;28;20066;-80
2023/10/19 02:41:15;;;;;;;23.52;12.57;;;;;;;;;;5091543;28;20055;-79
2023/10/19 02:43:45;;;;;;;25.05;13.50;;;;;;;;;;5091089;28;20514;-80
2023/10/19 02:46:13;;;;;;;29.73;15.48;;;;;;;;;;5075134;28;20059;-79
2023/10/19 02:48:44;;;;;;;24.52;12.95;;;;;;;;;;5091078;28;20044;-78
2023/10/19 02:51:11;;;;;;;27.80;14.45;;;;;;;;;;5074809;28;20071;-79
2023/10/19 02:53:38;;;;;;;27.75;14.07;;;;;;;;;;5089477;28;20113;-79
2023/10/19 02:56:16;;;;;;;25.02;13.40;;;;;;;;;;5088495;28;20040;-79
2023/10/19 02:58:43;;;;;;;31.10;15.25;;;;;;;;;;5073919;28;20056;-78
2023/10/19 03:01:14;;;;;;;28.55;13.27;;;;;;;;;;5054809;28;20045;-78
2023/10/19 03:03:43;;;;;;;33.95;16.48;;;;;;;;;;5070679;28;20500;-78
2023/10/19 03:06:09;;;;;;;37.90;17.70;;;;;;;;;;5088140;28;20105;-79
2023/10/19 03:08:36;;;;;;;32.25;16.73;;;;;;;;;;5086904;28;20060;-81
2023/10/19 03:11:05;;;;;;;;;;;;;;;;;;5087458;28;20040;-79
2023/10/19 03:13:34;;;;;;;27.20;14.23;;;;;;;;;;5091747;28;20373;-78
2023/10/19 03:16:07;;;;;;;21.10;12.57;;;;;;;;;;5091380;28;20106;-78
2023/10/19 03:18:33;;;;;;;25.33;13.85;;;;;;;;;;5074318;28;20136;-79
2023/10/19 03:20:59;;;;;;;31.95;15.40;;;;;;;;;;5108011;28;20044;-80
2023/10/19 03:23:28;;;;;;;23.98;13.45;;;;;;;;;;5090958;28;20057;-78
2023/10/19 03:28:40;;;;;;;29.63;14.82;;;;;;;;;;5061131;28;20504;-79
2023/10/19 03:31:07;;;;;;;24.90;13.18;;;;;;;;;;5038115;28;20138;-78
2023/10/19 03:33:36;;;;;;;23.23;14.15;;;;;;;;;;5107998;28;20416;-78
2023/10/19 03:36:04;;;;;;;25.33;12.65;;;;;;;;;;5057819;28;20048;-78
2023/10/19 03:38:36;;;;;;;25.27;13.55;;;;;;;;;;5108130;27;20048;-79
2023/10/19 03:41:07;;;;;;;30.77;15.82;;;;;;;;;;5108552;28;20493;-78
2023/10/19 03:43:33;;;;;;;23.30;13.32;;;;;;;;;;5074058;28;20048;-78
2023/10/19 03:46:04;;;;;;;23.60;13.05;;;;;;;;;;5055223;28;20602;-78
2023/10/19 03:48:37;;;;;;;24.58;13.48;;;;;;;;;;5090979;28;20074;-79
2023/10/19 03:51:03;;;;;;;29.42;14.68;;;;;;;;;;5090395;28;20086;-78
2023/10/19 03:53:30;;;;;;;;;;;;;;;;;;5057407;28;20166;-79
2023/10/19 03:55:56;;;;;;;;;;;;;;;;;;5058544;28;19974;-79
2023/10/19 03:58:22;;;;;;;30.25;13.93;;;;;;;;;;5091231;28;19920;-79
2023/10/19 04:00:49;;;;;;;;;;;;;;;;;;5090954;28;20489;-79
2023/10/19 04:03:17;;;;;;;20.40;12.87;;;;;;;;;;5074170;28;19923;-78
2023/10/19 04:05:46;;;;;;;21.48;12.55;;;;;;;;;;5090003;28;20302;-79
2023/10/19 04:08:20;;;;;;;22.45;13.55;;;;;;;;;;5090259;28;20051;-79
2023/10/19 04:11:08;;;;;;;22.95;12.43;;;;;;;;;;5066166;28;20048;-79
2023/10/19 04:13:33;;;;;;;30.13;15.60;;;;;;;;;;5055497;28;20051;-79
2023/10/19 04:15:59;;;;;;;;;;;;;;;;;;5070659;28;20056;-79
2023/10/19 04:18:25;;;;;;;22.90;12.85;;;;;;;;;;5057765;28;19997;-79
2023/10/19 04:23:21;;;;;;;23.63;13.82;;;;;;;;;;5057675;28;20606;-78
2023/10/19 04:25:47;;;;;;;24.13;12.65;;;;;;;;;;5056098;28;20049;-78
2023/10/19 04:28:30;;;;;;;24.80;13.10;;;;;;;;;;5074646;28;20444;-78
2023/10/19 04:30:57;;;;;;;24.02;13.07;;;;;;;;;;5068968;28;20516;-79
2023/10/19 04:33:27;;;;;;;28.27;15.32;;;;;;;;;;5092938;28;20044;-81
2023/10/19 04:35:55;;;;;;;20.08;11.73;;;;;;;;;;5090238;28;20048;-79
2023/10/19 04:38:23;;;;;;;18.50;11.32;;;;;;;;;;5073542;28;20059;-79
2023/10/19 04:40:49;;;;;;;19.35;10.52;;;;;;;;;;5093001;28;20577;-79
2023/10/19 04:43:16;;;;;;;22.92;13.18;;;;;;;;;;5041082;28;20185;-79
2023/10/19 04:45:44;;;;;;;19.85;11.07;;;;;;;;;;5059780;28;20056;-79
2023/10/19 04:48:10;;;;;;;26.75;13.15;;;;;;;;;;5073424;28;20049;-79
2023/10/19 04:50:36;;;;;;;17.85;10.73;;;;;;;;;;5057312;28;20052;-79
2023/10/19 04:53:03;;;;;;;21.48;11.68;;;;;;;;;;5056147;28;20048;-79
2023/10/19 04:55:29;;;;;;;;;;;;;;;;;;5083419;28;20052;-79
2023/10/19 04:57:56;;;;;;;16.65;9.82;;;;;;;;;;5090551;28;19970;-79
2023/10/19 05:00:24;;;;;;;17.70;10.63;;;;;;;;;;5094273;28;20055;-78
2023/10/19 05:02:51;;;;;;;20.73;11.43;;;;;;;;;;5093142;28;20577;-78
2023/10/19 05:05:18;;;;;;;18.60;10.63;;;;;;;;;;5076779;28;20036;-79
2023/10/19 05:07:44;;;;;;;16.90;10.15;;;;;;;;;;5076614;28;20087;-78
2023/10/19 05:10:11;;;;;;;;;;;;;;;;;;5093115;28;20048;-78
2023/10/19 05:12:37;;;;;;;17.10;10.13;;;;;;;;;;5077115;28;19920;-79
2023/10/19 05:15:05;;;;;;;;;;;;;;;;;;5093795;28;20048;-79
2023/10/19 05:17:31;;;;;;;15.80;9.20;;;;;;;;;;5093812;28;19923;-78
2023/10/19 05:19:57;;;;;;;;;;;;;;;;;;5093645;28;20075;-80
2023/10/19 05:22:29;;;;;;;16.42;8.85;;;;;;;;;;5079553;28;20598;-78
2023/10/19 05:24:55;;;;;;;14.95;9.52;;;;;;;;;;5072310;28;20055;-78
2023/10/19 05:27:22;;;;;;;13.93;8.88;;;;;;;;;;5067736;28;20044;-78
2023/10/19 05:29:48;;;;;;;18.13;9.75;;;;;;;;;;5072938;28;20045;-79
2023/10/19 05:32:14;;;;;;;;;;;;;;;;;;5073343;28;20080;-80
2023/10/19 05:34:40;;;;;;;21.30;11.70;;;;;;;;;;5073258;28;19973;-80
2023/10/19 05:37:08;;;;;;;;;;;;;;;;;;5090648;28;20048;-79
2023/10/19 05:39:36;;;;;;;13.50;9.43;;;;;;;;;;5078197;28;20353;-79
2023/10/19 05:42:02;;;;;;;13.85;8.45;;;;;;;;;;5071557;28;20048;-79
2023/10/19 05:44:30;;;;;;;14.45;9.05;;;;;;;;;;5071797;28;20480;-79
2023/10/19 05:46:56;;;;;;;14.38;9.02;;;;;;;;;;5055450;28;20060;-79
2023/10/19 05:49:23;;;;;;;;;;;;;;;;;;5069321;28;20047;-79
2023/10/19 05:51:50;;;;;;;16.08;10.05;;;;;;;;;;5077181;28;19943;-79
2023/10/19 05:54:16;;;;;;;21.67;11.20;;;;;;;;;;5055349;28;20493;-78
2023/10/19 05:56:43;;;;;;;15.40;10.57;;;;;;;;;;5055803;28;20052;-79
2023/10/19 05:59:10;;;;;;;;;;;;;;;;;;5056120;28;20044;-79
2023/10/19 06:01:37;;;;;;;15.55;10.00;;;;;;;;;;5089646;28;19920;-79
2023/10/19 06:04:03;;;;;;;13.57;9.23;;;;;;;;;;5083167;28;20078;-79
2023/10/19 06:06:29;;;;;;;14.88;9.80;;;;;;;;;;5066418;28;20044;-78
2023/10/19 06:08:55;;;;;;;;;;;;;;;;;;5092342;28;20051;-80
2023/10/19 06:11:22;;;;;;;21.95;11.30;;;;;;;;;;5073525;28;20377;-78
2023/10/19 06:13:48;;;;;;;31.13;15.95;;;;;;;;;;5072495;28;20045;-80
2023/10/19 06:16:14;;;;;;;;;;;;;;;;;;5072318;28;20045;-79
2023/10/19 06:18:43;;;;;;;20.45;11.18;;;;;;;;;;5072312;28;20381;-79
2023/10/19 06:21:09;;;;;;;15.00;10.48;;;;;;;;;;5055229;28;20040;-78
2023/10/19 06:23:36;;;;;;;16.25;10.13;;;;;;;;;;5037953;28;20041;-79
2023/10/19 06:26:11;;;;;;;15.70;10.27;;;;;;;;;;5081410;28;20048;-78
2023/10/19 06:28:39;;;;;;;14.02;9.55;;;;;;;;;;5077229;28;20059;-78
2023/10/19 06:31:05;;;;;;;13.63;9.20;;;;;;;;;;5079310;28;20044;-78
2023/10/19 06:33:33;;;;;;;;;;;;;;;;;;5075788;28;20044;-78
2023/10/19 06:35:59;;;;;;;17.60;10.77;;;;;;;;;;5091792;28;19927;-80
2023/10/19 06:38:26;;;;;;;18.77;11.75;;;;;;;;;;5108914;28;20036;-78
2023/10/19 06:40:51;;;;;;;;;;;;;;;;;;5091832;28;20093;-75
2023/10/19 06:43:18;;;;;;;23.17;12.55;;;;;;;;;;5091542;28;20373;-80
2023/10/19 06:45:44;;;;;;;;;;;;;;;;;;5088980;28;20048;-80
2023/10/19 06:48:11;;;;;;;17.90;11.07;;;;;;;;;;5091547;28;19966;-79
2023/10/19 06:50:37;;;;;;;23.27;13.30;;;;;;;;;;5075256;28;20051;-80
2023/10/19 06:53:05;;;;;;;20.35;12.63;;;;;;;;;;5073930;28;20538;-81
2023/10/19 06:55:31;;;;;;;22.50;13.45;;;;;;;;;;5064423;28;20513;-80
2023/10/19 06:57:57;;;;;;;;;;;;;;;;;;5072631;28;20041;-81
2023/10/19 07:00:26;;;;;;;17.35;9.70;;;;;;;;;;5054963;28;20387;-78
2023/10/19 07:02:53;;;;;;;23.58;12.70;;;;;;;;;;5062519;28;20044;-83
2023/10/19 07:05:29;;;;;;;25.60;13.98;;;;;;;;;;5090928;28;20040;-77
2023/10/19 07:07:56;;;;;;;20.23;12.20;;;;;;;;;;5091207;28;20040;-80
2023/10/19 07:10:23;;;;;;;23.40;13.68;;;;;;;;;;5088002;28;20683;-82
2023/10/19 07:12:51;;;;;;;19.52;12.82;;;;;;;;;;5103340;28;20044;-77
2023/10/19 07:15:22;;;;;;;25.23;13.80;;;;;;;;;;5074626;28;20051;-78
2023/10/19 07:17:48;;;;;;;28.88;15.40;;;;;;;;;;5075022;28;20161;-76
2023/10/19 07:20:36;;;;;;;18.58;12.05;;;;;;;;;;5090576;28;20050;-76
2023/10/19 07:23:06;;;;;;;20.63;11.13;;;;;;;;;;5074121;28;20043;-74
2023/10/19 07:25:42;;;;;;;20.10;11.52;;;;;;;;;;5090226;28;20044;-74
2023/10/19 07:28:09;;;;;;;18.02;11.77;;;;;;;;;;5074159;28;20051;-80
2023/10/19 07:30:35;;;;;;;17.77;11.77;;;;;;;;;;5091244;28;20070;-74
2023/10/19 07:33:04;;;;;;;24.80;12.27;;;;;;;;;;5090660;28;20052;-75
2023/10/19 07:35:34;;;;;;;19.15;12.38;;;;;;;;;;5082662;28;20048;-75
2023/10/19 07:38:01;;;;;;;22.23;12.50;;;;;;;;;;5085890;28;20059;-75
2023/10/19 07:40:27;;;;;;;20.52;11.93;;;;;;;;;;5074849;28;20044;-75
2023/10/19 07:42:54;;;;;;;23.25;13.52;;;;;;;;;;5074466;28;20051;-77
2023/10/19 07:45:21;;;;;;;21.63;12.05;;;;;;;;;;5069461;28;20068;-75
2023/10/19 07:47:47;;;;;;;23.67;12.35;;;;;;;;;;5070862;28;20103;-75
2023/10/19 07:50:17;;;;;;;27.90;15.02;;;;;;;;;;5070106;28;20413;-74
2023/10/19 07:52:44;;;;;;;28.08;13.77;;;;;;;;;;5052965;28;20084;-74
2023/10/19 07:55:10;;;;;;;21.35;12.57;;;;;;;;;;5069561;28;20053;-79
2023/10/19 07:57:37;;;;;;;30.08;15.82;;;;;;;;;;5079814;28;20673;-74
2023/10/19 08:00:04;;;;;;;23.50;14.55;;;;;;;;;;5073243;28;20049;-74
2023/10/19 08:02:30;;;;;;;24.00;14.60;;;;;;;;;;5104077;28;20626;-73
2023/10/19 08:04:56;;;;;;;19.75;12.70;;;;;;;;;;5104056;28;20086;-77
2023/10/19 08:07:22;;;;;;;;;;;;;;;;;;5104078;28;20443;-78
2023/10/19 08:09:48;;;;;;;21.13;10.55;;;;;;;;;;5071777;28;19920;-78
2023/10/19 08:12:14;;;;;;;;;;;;;;;;;;5076703;28;20405;-78
2023/10/19 08:14:42;;;;;;;28.02;16.55;;;;;;;;;;5073756;28;19931;-78
2023/10/19 08:17:08;;;;;;;30.67;15.35;;;;;;;;;;5058567;28;20045;-78
2023/10/19 08:19:35;;;;;;;23.17;13.23;;;;;;;;;;5058547;28;20076;-77
2023/10/19 08:22:02;;;;;;;31.30;16.60;;;;;;;;;;5076769;28;20049;-77
2023/10/19 08:24:30;;;;;;;26.10;14.55;;;;;;;;;;5067492;28;20044;-77
2023/10/19 08:26:56;;;;;;;23.73;14.70;;;;;;;;;;5095407;28;20068;-77
2023/10/19 08:29:23;;;;;;;24.85;14.80;;;;;;;;;;5118363;28;20039;-77
2023/10/19 08:31:50;;;;;;;21.30;12.85;;;;;;;;;;5069790;28;20667;-78
2023/10/19 08:34:17;;;;;;;21.77;14.38;;;;;;;;;;5068419;28;20048;-82
2023/10/19 08:36:43;;;;;;;20.70;12.30;;;;;;;;;;5077310;28;20044;-77
2023/10/19 08:39:12;;;;;;;22.23;14.05;;;;;;;;;;5088767;28;20072;-77
2023/10/19 08:41:40;;;;;;;31.52;15.95;;;;;;;;;;5063419;28;20548;-78
2023/10/19 08:44:17;;;;;;;29.40;17.13;;;;;;;;;;5078228;28;20127;-77
2023/10/19 08:46:44;;;;;;;23.58;12.90;;;;;;;;;;5063719;28;20088;-77
2023/10/19 08:49:12;;;;;;;34.33;17.88;;;;;;;;;;5079100;28;20032;-77
2023/10/19 08:51:38;;;;;;;25.77;16.00;;;;;;;;;;5083003;28;20040;-78
2023/10/19 08:54:10;;;;;;;25.08;16.13;;;;;;;;;;5083454;28;20048;-77
2023/10/19 08:56:36;;;;;;;25.20;14.27;;;;;;;;;;5089277;28;20105;-77
2023/10/19 08:59:03;;;;;;;23.80;15.05;;;;;;;;;;5063038;28;20037;-77
2023/10/19 09:01:29;;;;;;;22.10;14.18;;;;;;;;;;5080657;28;20071;-77
2023/10/19 09:03:58;;;;;;;23.98;14.23;;;;;;;;;;5087884;28;20519;-79
2023/10/19 09:06:25;;;;;;;26.20;15.88;;;;;;;;;;5081833;28;20450;-78
2023/10/19 09:08:51;;;;;;;25.83;15.18;;;;;;;;;;5094772;28;20064;-77
2023/10/19 09:11:20;;;;;;;39.67;17.75;;;;;;;;;;5084218;28;20048;-80
2023/10/19 09:13:47;;;;;;;34.90;18.10;;;;;;;;;;5123320;27;20115;-77
2023/10/19 09:16:17;;;;;;;31.10;17.23;;;;;;;;;;5066186;28;20511;-77
2023/10/19 09:18:44;;;;;;;28.85;16.27;;;;;;;;;;5066554;28;20048;-77
2023/10/19 09:21:23;;;;;;;24.25;14.30;;;;;;;;;;5069132;28;20051;-78
2023/10/19 09:23:50;;;;;;;27.95;16.67;;;;;;;;;;5089607;28;20052;-77
2023/10/19 09:26:17;;;;;;;28.25;17.45;;;;;;;;;;5076294;28;20040;-77
2023/10/19 09:28:47;;;;;;;24.35;15.07;;;;;;;;;;5071955;28;20055;-81
2023/10/19 09:31:13;;;;;;;26.23;15.32;;;;;;;;;;5101963;27;20677;-77
2023/10/19 09:33:41;;;;;;;26.98;15.13;;;;;;;;;;5062525;28;20049;-77
2023/10/19 09:36:12;;;;;;;29.80;16.52;;;;;;;;;;5087464;28;20441;-79
2023/10/19 09:38:48;;;;;;;22.85;13.88;;;;;;;;;;5101072;28;20393;-75
2023/10/19 09:41:16;;;;;;;29.00;15.27;;;;;;;;;;5066091;28;20094;-78
2023/10/19 09:43:46;;;;;;;27.55;15.68;;;;;;;;;;5083184;28;20282;-78
2023/10/19 09:46:13;;;;;;;25.80;16.15;;;;;;;;;;5062780;28;20055;-78
2023/10/19 09:48:44;;;;;;;23.63;15.75;;;;;;;;;;5075625;28;20059;-78
2023/10/19 09:51:10;;;;;;;20.50;13.35;;;;;;;;;;5082982;28;20074;-78
2023/10/19 09:53:37;;;;;;;25.70;13.20;;;;;;;;;;5082611;28;20485;-79
2023/10/19 09:56:06;;;;;;;29.23;16.20;;;;;;;;;;5079754;28;20460;-78
2023/10/19 09:58:37;;;;;;;25.67;15.20;;;;;;;;;;5082613;28;20048;-77
2023/10/19 10:01:11;;;;;;;27.70;16.13;;;;;;;;;;5076333;28;20062;-77
2023/10/19 10:03:45;;;;;;;25.42;16.00;;;;;;;;;;5065029;28;20059;-74
2023/10/19 10:06:12;;;;;;;24.30;14.23;;;;;;;;;;5079230;28;20576;-78
2023/10/19 10:08:39;;;;;;;26.25;14.80;;;;;;;;;;5096200;28;20079;-80
2023/10/19 10:11:16;;;;;;;31.95;16.15;;;;;;;;;;5080448;28;20045;-78
2023/10/19 10:13:44;;;;;;;28.05;16.90;;;;;;;;;;5080792;28;20481;-76
2023/10/19 10:16:14;;;;;;;22.63;13.30;;;;;;;;;;5086640;28;20675;-75
2023/10/19 10:18:41;;;;;;;28.75;15.13;;;;;;;;;;5060169;28;20072;-75
2023/10/19 10:21:15;;;;;;;24.65;13.40;;;;;;;;;;5095010;28;20393;-77
2023/10/19 10:24:00;;;;;;;29.08;16.83;;;;;;;;;;5082725;28;20083;-78
2023/10/19 10:26:35;;;;;;;23.63;13.65;;;;;;;;;;5075249;28;20545;-83
2023/10/19 10:29:14;;;;;;;23.10;13.60;;;;;;;;;;5110360;27;20083;-77
2023/10/19 10:31:47;;;;;;;23.02;14.82;;;;;;;;;;5074845;28;20132;-80
2023/10/19 10:34:32;;;;;;;24.60;14.35;;;;;;;;;;5085406;28;20040;-77
2023/10/19 10:37:02;;;;;;;26.60;15.15;;;;;;;;;;5063543;28;20718;-78
2023/10/19 10:39:30;;;;;;;22.08;14.02;;;;;;;;;;5091575;28;20040;-82
2023/10/19 10:41:57;;;;;;;23.25;13.63;;;;;;;;;;5090979;28;20048;-77
2023/10/19 10:44:36;;;;;;;22.13;13.55;;;;;;;;;;5074869;28;20092;-78
2023/10/19 10:47:02;;;;;;;25.58;15.77;;;;;;;;;;5092031;28;20052;-77
2023/10/19 10:49:28;;;;;;;;;;;;;;;;;;5092509;28;20055;-78
2023/10/19 10:51:56;;;;;;;20.50;13.15;;;;;;;;;;5090704;28;19920;-77
2023/10/19 10:54:22;;;;;;;20.67;12.55;;;;;;;;;;5073149;28;20090;-77
2023/10/19 10:56:50;;;;;;;20.65;13.77;;;;;;;;;;5085748;28;20063;-77
2023/10/19 10:59:17;;;;;;;20.13;12.85;;;;;;;;;;5089990;28;20473;-78
2023/10/19 11:01:44;;;;;;;22.52;14.02;;;;;;;;;;5074854;28;20055;-79
2023/10/19 11:04:11;;;;;;;25.33;14.88;;;;;;;;;;5059319;28;20045;-77
2023/10/19 11:07:06;;;;;;;23.42;14.60;;;;;;;;;;5086009;28;20471;-77
2023/10/19 11:09:44;;;;;;;24.02;13.85;;;;;;;;;;5076174;28;20515;-81
2023/10/19 11:12:11;;;;;;;20.75;12.15;;;;;;;;;;5074488;28;20086;-76
2023/10/19 11:14:37;;;;;;;20.38;12.77;;;;;;;;;;5070423;28;20044;-77
2023/10/19 11:17:16;;;;;;;20.55;12.85;;;;;;;;;;5091484;28;20039;-77
2023/10/19 11:19:42;;;;;;;21.85;14.50;;;;;;;;;;5080122;28;20409;-77
2023/10/19 11:22:11;;;;;;;20.98;14.23;;;;;;;;;;5064302;28;20044;-77
2023/10/19 11:24:39;;;;;;;20.63;12.95;;;;;;;;;;5115716;27;20120;-77
2023/10/19 11:27:10;;;;;;;24.58;14.68;;;;;;;;;;5069686;28;20066;-76
2023/10/19 11:29:38;;;;;;;23.63;14.50;;;;;;;;;;5074086;28;20048;-78
2023/10/19 11:32:05;;;;;;;24.98;14.00;;;;;;;;;;5107779;28;20085;-78
2023/10/19 11:34:34;;;;;;;20.88;14.02;;;;;;;;;;5086293;28;20062;-78
2023/10/19 11:37:02;;;;;;;19.70;12.35;;;;;;;;;;5089352;28;20056;-78
2023/10/19 11:39:28;;;;;;;25.70;14.45;;;;;;;;;;5087570;28;20397;-77
2023/10/19 11:41:55;;;;;;;;;;;;;;;;;;5094190;28;20119;-78
2023/10/19 11:44:22;;;;;;;23.67;13.32;;;;;;;;;;5081355;28;19924;-78
2023/10/19 11:46:49;;;;;;;22.88;13.50;;;;;;;;;;5082518;28;20481;-84
2023/10/19 11:49:15;;;;;;;;;;;;;;;;;;5091743;28;20131;-78
2023/10/19 11:51:41;;;;;;;19.92;11.88;;;;;;;;;;5090545;28;19963;-80
2023/10/19 11:54:07;;;;;;;;;;;;;;;;;;5075017;28;20042;-79
2023/10/19 11:56:34;;;;;;;21.20;12.20;;;;;;;;;;5073563;28;19920;-80
2023/10/19 11:59:01;;;;;;;19.52;12.85;;;;;;;;;;5084646;28;20044;-78
2023/10/19 12:01:29;;;;;;;20.50;12.52;;;;;;;;;;5090973;28;20051;-79
2023/10/19 12:03:55;;;;;;;20.00;12.82;;;;;;;;;;5052824;28;20072;-79
2023/10/19 12:06:23;;;;;;;18.90;13.13;;;;;;;;;;5104772;28;20044;-79
2023/10/19 12:08:49;;;;;;;19.45;12.95;;;;;;;;;;5089156;28;20071;-78
2023/10/19 12:11:16;;;;;;;18.23;12.13;;;;;;;;;;5091112;28;20447;-79
2023/10/19 12:13:46;;;;;;;18.25;11.23;;;;;;;;;;5090741;28;20044;-79
2023/10/19 12:16:13;;;;;;;20.77;13.40;;;;;;;;;;5065515;28;20095;-78
2023/10/19 12:18:42;;;;;;;18.48;12.25;;;;;;;;;;5075775;28;20101;-81
2023/10/19 12:21:11;;;;;;;17.30;11.25;;;;;;;;;;5098159;28;20120;-80
2023/10/19 12:23:41;;;;;;;17.38;11.40;;;;;;;;;;5119791;28;20063;-80
2023/10/19 12:26:14;;;;;;;18.70;12.18;;;;;;;;;;5074118;28;20558;-83
2023/10/19 12:28:41;;;;;;;19.73;11.27;;;;;;;;;;5059036;28;20135;-86
2023/10/19 12:31:10;;;;;;;16.75;10.77;;;;;;;;;;5079435;28;20048;-81
2023/10/19 12:33:38;;;;;;;19.05;11.93;;;;;;;;;;5087526;28;20139;-83
2023/10/19 12:36:29;;;;;;;18.38;12.50;;;;;;;;;;5087735;28;20048;-82
2023/10/19 12:38:51;;;;;;;19.87;12.10;;;;;;;;;;5106485;28;20107;-81
2023/10/19 12:41:18;;;;;;;17.42;11.80;;;;;;;;;;5091633;28;20071;-82
2023/10/19 12:43:46;;;;;;;16.40;10.45;;;;;;;;;;5101448;28;20050;-80
2023/10/19 12:46:13;;;;;;;18.08;11.10;;;;;;;;;;5072191;28;20178;-78
2023/10/19 12:48:40;;;;;;;15.88;10.18;;;;;;;;;;5073789;28;20041;-78
2023/10/19 12:51:11;;;;;;;16.20;10.15;;;;;;;;;;5063618;28;20129;-77
2023/10/19 12:53:41;;;;;;;17.98;11.40;;;;;;;;;;5094667;28;20055;-78
2023/10/19 12:56:10;;;;;;;19.42;12.48;;;;;;;;;;5091137;28;20477;-78
2023/10/19 12:58:38;;;;;;;18.52;11.50;;;;;;;;;;5104005;27;20052;-77
2023/10/19 13:01:05;;;;;;;17.13;10.75;;;;;;;;;;5084394;28;20078;-78
2023/10/19 13:03:32;;;;;;;20.15;11.82;;;;;;;;;;5100869;28;20039;-78
2023/10/19 13:05:59;;;;;;;20.58;13.05;;;;;;;;;;5084513;28;20043;-77
2023/10/19 13:08:27;;;;;;;16.02;10.80;;;;;;;;;;5094316;28;20147;-78
2023/10/19 13:10:54;;;;;;;21.13;13.02;;;;;;;;;;5067401;28;20066;-79
2023/10/19 13:13:23;;;;;;;21.20;12.85;;;;;;;;;;5103770;27;20047;-77
2023/10/19 13:15:50;;;;;;;19.77;12.52;;;;;;;;;;5080318;28;20038;-78
2023/10/19 13:18:27;;;;;;;22.20;13.15;;;;;;;;;;5093522;28;20048;-77
2023/10/19 13:20:54;;;;;;;24.33;15.18;;;;;;;;;;5114440;27;20118;-80
2023/10/19 13:23:23;;;;;;;24.40;14.43;;;;;;;;;;5083331;28;20042;-78
2023/10/19 13:25:52;;;;;;;21.45;12.73;;;;;;;;;;5075562;28;20043;-78
2023/10/19 13:28:19;;;;;;;21.55;14.38;;;;;;;;;;5094176;28;20075;-80
2023/10/19 13:30:49;;;;;;;22.55;14.63;;;;;;;;;;5067301;28;20104;-78
2023/10/19 13:33:16;;;;;;;22.45;13.63;;;;;;;;;;5083495;28;20043;-79
2023/10/19 13:35:42;;;;;;;24.33;13.45;;;;;;;;;;5089375;28;20048;-79
2023/10/19 13:38:10;;;;;;;22.77;14.07;;;;;;;;;;5073734;28;20047;-79
2023/10/19 13:40:39;;;;;;;20.90;13.98;;;;;;;;;;5069302;28;20400;-78
2023/10/19 13:43:06;;;;;;;20.92;13.30;;;;;;;;;;5094911;28;20044;-77
2023/10/19 13:45:36;;;;;;;21.38;12.23;;;;;;;;;;5089610;28;20057;-77
2023/10/19 13:48:06;;;;;;;24.45;14.65;;;;;;;;;;5096169;28;20043;-77
2023/10/19 13:50:32;;;;;;;24.83;13.45;;;;;;;;;;5095799;28;20047;-77
2023/10/19 13:53:00;;;;;;;22.30;13.65;;;;;;;;;;5079168;28;20068;-77
2023/10/19 13:55:28;;;;;;;22.70;14.68;;;;;;;;;;5073347;28;20048;-78
2023/10/19 13:57:55;;;;;;;23.40;13.38;;;;;;;;;;5080327;28;20476;-77
2023/10/19 14:00:30;;;;;;;25.70;15.35;;;;;;;;;;5106323;27;20083;-77
2023/10/19 14:03:00;;;;;;;25.83;15.82;;;;;;;;;;5092352;28;20055;-78
2023/10/19 14:05:27;;;;;;;23.67;13.65;;;;;;;;;;5048222;28;20527;-77
2023/10/19 14:07:53;;;;;;;24.23;14.88;;;;;;;;;;5091335;28;20096;-78
2023/10/19 14:10:22;;;;;;;25.52;14.90;;;;;;;;;;5091086;28;20040;-77
2023/10/19 14:12:51;;;;;;;23.33;14.20;;;;;;;;;;5092042;28;20397;-80
2023/10/19 14:15:18;;;;;;;22.85;13.23;;;;;;;;;;5079872;28;20493;-81
2023/10/19 14:17:47;;;;;;;22.52;14.52;;;;;;;;;;5099151;27;20055;-79
2023/10/19 14:20:14;;;;;;;22.60;13.43;;;;;;;;;;5125934;27;20040;-79
2023/10/19 14:22:45;;;;;;;28.52;12.80;;;;;;;;;;5075458;28;20048;-79
2023/10/19 14:25:12;;;;;;;21.17;13.13;;;;;;;;;;5078694;28;20044;-79
2023/10/19 14:27:42;;;;;;;18.77;11.32;;;;;;;;;;5075848;28;20079;-79
2023/10/19 14:30:19;;;;;;;25.08;15.10;;;;;;;;;;5075578;28;20131;-79
2023/10/19 14:32:49;;;;;;;25.98;14.77;;;;;;;;;;5089925;28;20053;-79
2023/10/19 14:35:16;;;;;;;21.33;11.98;;;;;;;;;;5105642;28;20557;-79
2023/10/19 14:37:43;;;;;;;22.15;13.55;;;;;;;;;;5056973;28;20054;-79
2023/10/19 14:40:10;;;;;;;20.13;11.88;;;;;;;;;;5081103;28;20064;-77
2023/10/19 14:42:37;;;;;;;22.80;13.30;;;;;;;;;;5089562;28;20040;-79
2023/10/19 14:45:09;;;;;;;20.88;12.50;;;;;;;;;;5066098;28;20123;-77
2023/10/19 14:47:36;;;;;;;24.42;13.82;;;;;;;;;;5089895;28;20051;-75
2023/10/19 14:50:02;;;;;;;20.23;13.05;;;;;;;;;;5061118;28;20059;-78
2023/10/19 14:52:29;;;;;;;24.35;13.40;;;;;;;;;;5071423;28;20127;-78
2023/10/19 14:54:55;;;;;;;;;;;;;;;;;;5083617;28;20128;-78